地図

経路データ

SID SEASON NUMBER BASIN SUBBASIN NAME ISO_TIME NATURE LAT LON WMO_WIND WMO_PRES WMO_AGENCY TRACK_TYPE DIST2LAND LANDFALL IFLAG USA_AGENCY USA_ATCF_ID USA_LAT USA_LON USA_RECORD USA_STATUS USA_WIND USA_PRES USA_SSHS USA_R34_NE USA_R34_SE USA_R34_SW USA_R34_NW USA_R50_NE USA_R50_SE USA_R50_SW USA_R50_NW USA_R64_NE USA_R64_SE USA_R64_SW USA_R64_NW USA_POCI USA_ROCI USA_RMW USA_EYE TOKYO_LAT TOKYO_LON TOKYO_GRADE TOKYO_WIND TOKYO_PRES TOKYO_R50_DIR TOKYO_R50_LONG TOKYO_R50_SHORT TOKYO_R30_DIR TOKYO_R30_LONG TOKYO_R30_SHORT TOKYO_LAND CMA_LAT CMA_LON CMA_CAT CMA_WIND CMA_PRES HKO_LAT HKO_LON HKO_CAT HKO_WIND HKO_PRES NEWDELHI_LAT NEWDELHI_LON NEWDELHI_GRADE NEWDELHI_WIND NEWDELHI_PRES NEWDELHI_CI NEWDELHI_DP NEWDELHI_POCI REUNION_LAT REUNION_LON REUNION_TYPE REUNION_WIND REUNION_PRES REUNION_TNUM REUNION_CI REUNION_RMW REUNION_R34_NE REUNION_R34_SE REUNION_R34_SW REUNION_R34_NW REUNION_R50_NE REUNION_R50_SE REUNION_R50_SW REUNION_R50_NW REUNION_R64_NE REUNION_R64_SE REUNION_R64_SW REUNION_R64_NW BOM_LAT BOM_LON BOM_TYPE BOM_WIND BOM_PRES BOM_TNUM BOM_CI BOM_RMW BOM_R34_NE BOM_R34_SE BOM_R34_SW BOM_R34_NW BOM_R50_NE BOM_R50_SE BOM_R50_SW BOM_R50_NW BOM_R64_NE BOM_R64_SE BOM_R64_SW BOM_R64_NW BOM_ROCI BOM_POCI BOM_EYE BOM_POS_METHOD BOM_PRES_METHOD NADI_LAT NADI_LON NADI_CAT NADI_WIND NADI_PRES WELLINGTON_LAT WELLINGTON_LON WELLINGTON_WIND WELLINGTON_PRES DS824_LAT DS824_LON DS824_STAGE DS824_WIND DS824_PRES TD9636_LAT TD9636_LON TD9636_STAGE TD9636_WIND TD9636_PRES TD9635_LAT TD9635_LON TD9635_WIND TD9635_PRES TD9635_ROCI NEUMANN_LAT NEUMANN_LON NEUMANN_CLASS NEUMANN_WIND NEUMANN_PRES MLC_LAT MLC_LON MLC_CLASS MLC_WIND MLC_PRES USA_GUST BOM_GUST BOM_GUST_PER REUNION_GUST REUNION_GUST_PER USA_SEAHGT USA_SEARAD_NE USA_SEARAD_SE USA_SEARAD_SW USA_SEARAD_NW STORM_SPEED STORM_DIR
1954293N09088 1954 82 NI BB NOT_NAMED 1954-10-19 18:00:00 TS 8.50000 88.1000 main 701 650 O________O____ jtwc_io IO121954 8.50000 88.1000 -1 8.50000 88.1000 TC 12 296
1954293N09088 1954 82 NI BB NOT_NAMED 1954-10-19 21:00:00 TS 8.76011 87.5626 main 652 593 P________P____ IO121954 8.76011 87.5626 -1 8.76011 87.5626 TC 12 295
1954293N09088 1954 82 NI BB NOT_NAMED 1954-10-20 00:00:00 TS 9.00000 87.0000 main 593 537 O________O____ jtwc_io IO121954 9.00000 87.0000 -1 9.00000 87.0000 TC 25 12 291
1954293N09088 1954 82 NI BB NOT_NAMED 1954-10-20 03:00:00 TS 9.20664 86.3999 main 537 484 P________PO___ IO121954 9.20747 86.3999 -1 9.20747 86.3999 TC 25 9.20000 86.4000 1 12 289
1954293N09088 1954 82 NI BB NOT_NAMED 1954-10-20 06:00:00 TS 9.39565 85.8140 main 484 444 O________OP___ jtwc_io IO121954 9.40000 85.8000 -1 9.40000 85.8000 TC 25 9.37825 85.8701 1 12 289
1954293N09088 1954 82 NI BB NOT_NAMED 1954-10-20 09:00:00 TS 9.58487 85.2696 main 444 395 P________PP___ IO121954 9.59234 85.2499 -1 9.59234 85.2499 TC 25 9.56494 85.3221 1 12 290
1954293N09088 1954 82 NI BB NOT_NAMED 1954-10-20 12:00:00 TS 9.78973 84.7127 main 395 356 O________OP___ jtwc_io IO121954 9.80000 84.7000 -1 9.80000 84.7000 TC 25 9.76918 84.7381 1 12 291
1954293N09088 1954 82 NI BB NOT_NAMED 1954-10-20 15:00:00 TS 10.0282 84.1199 main 346 309 P________PO___ IO121954 10.0423 84.1299 -1 10.0423 84.1299 TC 25 10.0000 84.1000 1 13 292
1954293N09088 1954 82 NI BB NOT_NAMED 1954-10-20 18:00:00 TS 10.2874 83.4672 main 309 257 O________OP___ jtwc_io IO121954 10.3000 83.5000 -1 10.3000 83.5000 TC 25 10.2621 83.4015 1 15 291
1954293N09088 1954 82 NI BB NOT_NAMED 1954-10-20 21:00:00 TS 10.5479 82.7227 main 247 213 P________PP___ IO121954 10.5502 82.7425 -1 10.5502 82.7425 TC 25 10.5433 82.6832 1 15 290
1954293N09088 1954 82 NI BB NOT_NAMED 1954-10-21 00:00:00 TS 10.8093 81.9994 main 213 163 O________OP___ jtwc_io IO121954 10.8000 82.0000 -1 10.8000 82.0000 TC 25 10.8278 81.9983 1 14 292
1954293N09088 1954 82 NI BB NOT_NAMED 1954-10-21 03:00:00 TS 11.0666 81.3933 main 163 109 P________PO___ IO121954 11.0499 81.3899 -1 11.0499 81.3899 TC 25 11.1000 81.4000 1 12 295
1954293N09088 1954 82 NI BB NOT_NAMED 1954-10-21 06:00:00 TS 11.3021 80.9052 main 109 73 O________OP___ jtwc_io IO121954 11.3000 80.9000 -1 11.3000 80.9000 TC 25 11.3062 80.9155 1 10 298
1954293N09088 1954 82 NI BB NOT_NAMED 1954-10-21 09:00:00 TS 11.5347 80.5073 main 73 39 P________PP___ IO121954 11.5499 80.4974 -1 11.5499 80.4974 TC 25 11.5043 80.5270 1 8 305
1954293N09088 1954 82 NI BB NOT_NAMED 1954-10-21 12:00:00 TS 11.7751 80.2083 main 39 10 O________OP___ jtwc_io IO121954 11.8000 80.2000 -1 11.8000 80.2000 TC 25 11.7252 80.2250 1 7 313
1954293N09088 1954 82 NI BB NOT_NAMED 1954-10-21 15:00:00 TS 12.0133 79.9749 main 10 0 P________PO___ IO121954 12.0200 79.9624 -1 12.0200 79.9624 TC 25 12.0000 80.0000 1 7 325
1954293N09088 1954 82 NI BB NOT_NAMED 1954-10-21 18:00:00 TS 12.3203 79.8165 main 0 0 O________OP___ jtwc_io IO121954 12.3000 79.8000 -1 12.3000 79.8000 TC 25 12.3508 79.8411 1 8 340
1954293N09088 1954 82 NI BB NOT_NAMED 1954-10-21 21:00:00 TS 12.7337 79.7069 main 0 0 P________PP___ IO121954 12.7100 79.6876 -1 12.7100 79.6876 TC 25 12.7652 79.7327 1 9 348
1954293N09088 1954 82 NI BB NOT_NAMED 1954-10-22 00:00:00 TS 13.2110 79.6290 main 0 0 O________OP___ jtwc_io IO121954 13.2000 79.6000 -1 13.2000 79.6000 TC 25 13.2220 79.6580 1 10 354
1954293N09088 1954 82 NI BB NOT_NAMED 1954-10-22 03:00:00 NR 13.7000 79.6000 main 0 __________O___ IO121954 -1 TC 13.7000 79.6000 1 10 355

IBTrACS Databaseについて

本データベースは、米国NOAAが公開する1842年以降の世界の熱帯低気圧のベストトラックデータアーカイブInternational Best Track Archive for Climate Stewardship (IBTrACS)を、ウェブで閲覧しやすい形式に変換したものです。

最終更新日:2021-12-03